createdAt,value
2022-07-31T00:01:51.578Z,10.75
2022-07-31T00:03:57.181Z,10.05
2022-07-31T00:06:02.582Z,9.30
2022-07-31T00:08:08.640Z,10.00
2022-07-31T00:10:14.271Z,9.20
2022-07-31T00:12:21.724Z,8.57
2022-07-31T00:14:27.519Z,10.98
2022-07-31T00:16:36.751Z,10.15
2022-07-31T00:18:42.413Z,11.23
2022-07-31T00:20:49.291Z,13.65
2022-07-31T00:22:55.334Z,11.35
2022-07-31T00:25:04.708Z,8.60
2022-07-31T00:27:11.023Z,6.82
2022-07-31T00:29:16.775Z,8.73
2022-07-31T00:31:22.127Z,8.77
2022-07-31T00:33:30.900Z,10.98
2022-07-31T00:35:39.391Z,10.30
2022-07-31T00:37:45.953Z,10.43
2022-07-31T00:39:51.304Z,10.32
2022-07-31T00:41:57.534Z,9.65
2022-07-31T00:44:04.092Z,9.15
2022-07-31T00:46:14.585Z,9.13
2022-07-31T00:48:21.142Z,8.23
2022-07-31T00:50:31.530Z,7.68
2022-07-31T00:52:39.199Z,8.18
2022-07-31T00:54:44.580Z,9.27
2022-07-31T00:56:49.756Z,8.27
2022-07-31T00:58:55.895Z,8.95
2022-07-31T01:01:01.505Z,7.25
2022-07-31T01:03:07.750Z,9.57
2022-07-31T01:05:15.476Z,10.05
2022-07-31T01:09:29.393Z,10.60
2022-07-31T01:11:44.881Z,10.48
2022-07-31T01:13:56.153Z,10.85
2022-07-31T01:16:04.075Z,10.32
2022-07-31T01:18:11.693Z,10.88
2022-07-31T01:20:24.018Z,8.90
2022-07-31T01:23:04.446Z,9.70
2022-07-31T01:25:32.764Z,7.68
2022-07-31T01:28:05.609Z,11.40
2022-07-31T01:30:16.582Z,7.57
2022-07-31T01:32:28.766Z,7.35
2022-07-31T01:34:47.277Z,8.25
2022-07-31T01:37:06.408Z,8.95
2022-07-31T01:39:17.465Z,8.73
2022-07-31T01:41:31.793Z,9.05
2022-07-31T01:43:43.094Z,8.25
2022-07-31T01:45:56.476Z,10.90
2022-07-31T01:48:06.142Z,8.55
2022-07-31T01:50:42.329Z,8.75
2022-07-31T01:52:50.528Z,11.02
2022-07-31T01:54:57.304Z,10.93
2022-07-31T01:57:04.990Z,10.10
2022-07-31T01:59:20.509Z,7.55
2022-07-31T02:02:02.039Z,7.25
2022-07-31T02:04:10.471Z,12.60
2022-07-31T02:06:20.656Z,8.07
2022-07-31T02:08:30.456Z,9.35
2022-07-31T02:10:40.309Z,7.60
2022-07-31T02:12:49.900Z,8.07
2022-07-31T02:14:56.990Z,7.13
2022-07-31T02:17:05.781Z,7.25
2022-07-31T02:21:36.977Z,8.55
2022-07-31T02:23:44.189Z,9.07
2022-07-31T02:25:52.093Z,7.97
2022-07-31T02:27:59.781Z,7.78
2022-07-31T02:30:07.770Z,7.55
2022-07-31T02:32:20.667Z,8.63
2022-07-31T02:34:30.040Z,9.27
2022-07-31T02:36:40.377Z,9.18
2022-07-31T02:38:47.375Z,10.82
2022-07-31T02:40:57.661Z,8.95
2022-07-31T02:43:04.772Z,13.27
2022-07-31T02:45:14.059Z,9.13
2022-07-31T02:47:24.200Z,13.45
2022-07-31T02:49:31.366Z,12.80
2022-07-31T02:51:43.540Z,11.35
2022-07-31T02:53:51.339Z,10.57
2022-07-31T02:55:59.818Z,11.02
2022-07-31T02:58:05.981Z,10.50
2022-07-31T03:00:27.300Z,9.68
2022-07-31T03:02:37.937Z,9.50
2022-07-31T03:04:46.648Z,8.70
2022-07-31T03:08:57.206Z,10.10
2022-07-31T03:11:06.386Z,8.30
2022-07-31T03:13:13.605Z,11.88
2022-07-31T03:15:26.616Z,11.20
2022-07-31T03:17:40.838Z,9.70
2022-07-31T03:19:50.113Z,8.57
2022-07-31T03:21:57.409Z,9.13
2022-07-31T03:24:03.576Z,9.15
2022-07-31T03:26:10.812Z,8.82
2022-07-31T03:28:17.064Z,7.35
2022-07-31T03:30:25.880Z,9.43
2022-07-31T03:32:36.747Z,8.70
2022-07-31T03:34:42.482Z,7.63
2022-07-31T03:36:48.690Z,7.55
2022-07-31T03:38:54.971Z,8.82
2022-07-31T03:41:10.634Z,8.38
2022-07-31T03:43:19.564Z,10.60
2022-07-31T03:45:26.427Z,8.32
2022-07-31T03:47:36.644Z,7.78
2022-07-31T03:49:43.755Z,9.13
2022-07-31T03:51:51.500Z,8.87
2022-07-31T03:56:30.757Z,9.57
2022-07-31T03:58:37.952Z,10.02
2022-07-31T04:00:46.575Z,9.05
2022-07-31T04:02:58.422Z,10.40
2022-07-31T04:05:19.397Z,8.80
2022-07-31T04:07:25.495Z,10.55
2022-07-31T04:09:32.658Z,9.32
2022-07-31T04:11:38.602Z,9.50
2022-07-31T04:13:44.738Z,16.52
2022-07-31T04:15:52.638Z,12.48
2022-07-31T04:18:03.902Z,10.90
2022-07-31T04:20:17.737Z,10.35
2022-07-31T04:22:26.306Z,8.68
2022-07-31T04:24:32.445Z,15.45
2022-07-31T04:26:52.525Z,9.40
2022-07-31T04:28:58.155Z,11.50
2022-07-31T04:31:04.475Z,11.52
2022-07-31T04:33:17.088Z,10.32
2022-07-31T04:35:25.079Z,14.65
2022-07-31T04:37:32.133Z,10.40
2022-07-31T04:39:41.214Z,10.70
2022-07-31T04:41:49.507Z,13.85
2022-07-31T04:43:57.496Z,13.82
2022-07-31T04:46:03.638Z,11.23
2022-07-31T04:48:25.252Z,11.60
2022-07-31T04:52:39.214Z,11.80
2022-07-31T04:54:51.551Z,14.05
2022-07-31T04:56:58.370Z,14.38
2022-07-31T04:59:08.997Z,11.88
2022-07-31T05:01:17.814Z,12.25
2022-07-31T05:03:31.466Z,15.20
2022-07-31T05:05:37.363Z,12.90
2022-07-31T05:07:46.104Z,15.02
2022-07-31T05:09:57.145Z,14.95
2022-07-31T05:12:00.061Z,12.30
2022-07-31T05:14:09.135Z,13.77
2022-07-31T05:16:15.343Z,13.77
2022-07-31T05:20:49.273Z,14.00
2022-07-31T05:23:26.962Z,15.30
2022-07-31T05:25:51.416Z,13.23
2022-07-31T05:27:59.054Z,16.88
2022-07-31T05:30:07.518Z,13.50
2022-07-31T05:32:20.124Z,15.32
2022-07-31T05:34:25.947Z,13.15
2022-07-31T05:36:35.790Z,12.30
2022-07-31T05:38:41.806Z,10.45
2022-07-31T05:41:10.019Z,8.48
2022-07-31T05:43:39.709Z,6.82
2022-07-31T05:45:54.294Z,7.07
2022-07-31T05:48:02.393Z,9.77
2022-07-31T05:50:12.107Z,9.35
2022-07-31T05:52:20.858Z,6.93
2022-07-31T05:54:49.874Z,9.55
2022-07-31T05:57:33.103Z,5.70
2022-07-31T05:59:40.718Z,5.80
2022-07-31T06:01:46.814Z,5.38
2022-07-31T06:03:52.738Z,6.90
2022-07-31T06:06:19.867Z,7.05
2022-07-31T06:08:29.188Z,5.13
2022-07-31T06:10:56.122Z,8.55
2022-07-31T06:13:01.676Z,6.25
2022-07-31T06:15:09.023Z,6.13
2022-07-31T06:17:17.872Z,8.30
2022-07-31T06:19:24.917Z,5.43
2022-07-31T06:21:31.347Z,8.98
2022-07-31T06:23:39.771Z,9.52
2022-07-31T06:25:57.821Z,5.53
2022-07-31T06:28:10.261Z,5.57
2022-07-31T06:30:20.824Z,7.00
2022-07-31T06:32:29.008Z,5.72
2022-07-31T06:34:35.806Z,5.50
2022-07-31T06:36:41.816Z,4.72
2022-07-31T06:38:54.538Z,6.72
2022-07-31T06:41:06.156Z,8.77
2022-07-31T06:43:17.689Z,5.95
2022-07-31T06:45:51.716Z,7.75
2022-07-31T06:48:36.299Z,6.18
2022-07-31T06:50:47.962Z,8.15
2022-07-31T06:53:13.921Z,6.70
2022-07-31T06:55:23.318Z,4.07
2022-07-31T06:57:28.766Z,7.72
2022-07-31T06:59:39.989Z,4.85
2022-07-31T07:01:46.962Z,6.30
2022-07-31T07:03:52.988Z,6.97
2022-07-31T07:05:59.000Z,4.93
2022-07-31T07:08:05.252Z,5.05
2022-07-31T07:10:12.268Z,7.88
2022-07-31T07:12:40.583Z,4.45
2022-07-31T07:14:50.438Z,4.95
2022-07-31T07:16:55.590Z,5.80
2022-07-31T07:19:01.499Z,6.95
2022-07-31T07:21:07.505Z,7.20
2022-07-31T07:23:15.044Z,5.90
2022-07-31T07:25:41.193Z,6.05
2022-07-31T07:27:53.001Z,6.07
2022-07-31T07:30:02.363Z,8.02
2022-07-31T07:32:10.266Z,7.07
2022-07-31T07:34:16.714Z,5.45
2022-07-31T07:36:26.430Z,7.97
2022-07-31T07:38:39.638Z,8.13
2022-07-31T07:40:47.545Z,4.80
2022-07-31T07:43:01.211Z,6.60
2022-07-31T07:45:10.618Z,7.13
2022-07-31T07:47:16.530Z,6.18
2022-07-31T07:49:22.444Z,5.90
2022-07-31T07:51:58.802Z,5.60
2022-07-31T07:54:09.355Z,4.97
2022-07-31T07:56:46.091Z,6.32
2022-07-31T07:59:15.020Z,6.10
2022-07-31T08:01:29.780Z,8.02
2022-07-31T08:03:52.024Z,8.50
2022-07-31T08:05:59.726Z,5.05
2022-07-31T08:08:06.753Z,5.82
2022-07-31T08:10:27.257Z,6.32
2022-07-31T08:12:41.653Z,8.50
2022-07-31T08:15:12.626Z,4.57
2022-07-31T08:17:44.111Z,5.65
2022-07-31T08:19:51.485Z,8.82
2022-07-31T08:21:57.744Z,5.82
2022-07-31T08:24:04.926Z,5.45
2022-07-31T08:26:13.892Z,4.10
2022-07-31T08:28:19.494Z,4.88
2022-07-31T08:30:32.273Z,6.22
2022-07-31T08:32:39.080Z,6.93
2022-07-31T08:35:21.479Z,4.50
2022-07-31T08:39:55.375Z,4.85
2022-07-31T08:42:01.913Z,7.45
2022-07-31T08:44:09.435Z,5.03
2022-07-31T08:46:19.568Z,4.40
2022-07-31T08:48:30.002Z,4.95
2022-07-31T08:50:37.967Z,8.13
2022-07-31T08:52:49.731Z,5.00
2022-07-31T08:55:01.529Z,6.60
2022-07-31T08:57:12.994Z,6.78
2022-07-31T08:59:20.008Z,4.07
2022-07-31T09:01:29.389Z,6.95
2022-07-31T09:03:36.380Z,4.47
2022-07-31T09:05:43.512Z,5.35
2022-07-31T09:07:51.784Z,10.10
2022-07-31T09:09:57.394Z,8.63
2022-07-31T09:12:03.948Z,6.50
2022-07-31T09:14:32.618Z,6.00
2022-07-31T09:16:52.547Z,4.43
2022-07-31T09:19:03.097Z,6.05
2022-07-31T09:21:29.141Z,4.45
2022-07-31T09:23:35.978Z,4.90
2022-07-31T09:25:43.321Z,5.93
2022-07-31T09:27:52.980Z,5.32
2022-07-31T09:30:00.840Z,7.80
2022-07-31T09:32:27.631Z,4.07
2022-07-31T09:34:54.195Z,6.03
2022-07-31T09:37:12.735Z,5.00
2022-07-31T09:39:52.374Z,5.20
2022-07-31T09:42:18.213Z,4.90
2022-07-31T09:44:46.871Z,4.43
2022-07-31T09:46:54.819Z,4.20
2022-07-31T09:49:03.484Z,3.47
2022-07-31T09:51:12.480Z,5.05
2022-07-31T09:53:19.711Z,6.38
2022-07-31T09:55:31.575Z,4.72
2022-07-31T09:57:38.917Z,7.72
2022-07-31T09:59:45.388Z,5.65
2022-07-31T10:01:52.721Z,3.40
2022-07-31T10:04:04.645Z,5.97
2022-07-31T10:06:16.612Z,5.68
2022-07-31T10:08:25.206Z,2.80
2022-07-31T10:10:52.030Z,4.60
2022-07-31T10:13:12.193Z,3.72
2022-07-31T10:15:26.550Z,2.90
2022-07-31T10:18:02.244Z,4.95
2022-07-31T10:20:27.907Z,3.22
2022-07-31T10:22:57.139Z,3.80
2022-07-31T10:25:08.142Z,4.53
2022-07-31T10:27:16.167Z,3.53
2022-07-31T10:29:23.224Z,4.05
2022-07-31T10:31:31.500Z,4.15
2022-07-31T10:33:44.067Z,4.18
2022-07-31T10:36:19.989Z,5.35
2022-07-31T10:38:53.130Z,5.45
2022-07-31T10:41:25.898Z,2.80
2022-07-31T10:43:39.442Z,6.93
2022-07-31T10:46:11.854Z,3.45
2022-07-31T10:48:25.423Z,4.20
2022-07-31T10:51:11.287Z,4.57
2022-07-31T10:53:50.973Z,3.35
2022-07-31T10:56:18.453Z,4.70
2022-07-31T10:58:51.969Z,3.78
2022-07-31T11:01:26.079Z,4.43
2022-07-31T11:04:08.218Z,2.17
2022-07-31T11:06:43.318Z,2.53
2022-07-31T11:09:10.152Z,3.65
2022-07-31T11:11:37.872Z,2.58
2022-07-31T11:14:03.409Z,3.05
2022-07-31T11:16:38.670Z,2.70
2022-07-31T11:19:06.614Z,6.30
2022-07-31T11:21:37.169Z,3.08
2022-07-31T11:23:39.592Z,3.92
2022-07-31T11:26:07.660Z,3.88
2022-07-31T11:28:19.080Z,5.00
2022-07-31T11:30:24.748Z,3.92
2022-07-31T11:32:29.772Z,3.03
2022-07-31T11:34:34.857Z,3.85
2022-07-31T11:36:40.583Z,5.30
2022-07-31T11:38:49.782Z,5.95
2022-07-31T11:40:55.395Z,5.25
2022-07-31T11:45:28.430Z,3.33
2022-07-31T11:48:12.086Z,2.50
2022-07-31T11:50:10.538Z,4.05
2022-07-31T11:52:30.960Z,2.33
2022-07-31T11:54:42.170Z,8.93
2022-07-31T11:56:47.420Z,4.70
2022-07-31T11:58:57.878Z,4.28
2022-07-31T12:01:06.194Z,4.70
2022-07-31T12:03:12.263Z,8.48
2022-07-31T12:05:18.007Z,2.72
2022-07-31T12:07:44.506Z,2.95
2022-07-31T12:10:00.770Z,2.13
2022-07-31T12:12:11.852Z,3.65
2022-07-31T12:14:29.582Z,4.20
2022-07-31T12:16:43.756Z,2.60
2022-07-31T12:18:52.382Z,4.00
2022-07-31T12:21:00.256Z,3.55
2022-07-31T12:23:08.285Z,3.80
2022-07-31T12:25:45.688Z,4.07
2022-07-31T12:27:56.754Z,3.80
2022-07-31T12:30:14.818Z,2.38
2022-07-31T12:32:28.629Z,4.90
2022-07-31T12:34:36.141Z,5.55
2022-07-31T12:36:41.295Z,7.15
2022-07-31T12:38:48.919Z,2.50
2022-07-31T12:41:04.511Z,2.92
2022-07-31T12:43:09.581Z,5.18
2022-07-31T12:45:19.777Z,2.85
2022-07-31T12:47:27.962Z,3.75
2022-07-31T12:49:33.346Z,2.45
2022-07-31T12:51:46.286Z,2.17
2022-07-31T12:53:52.489Z,1.70
2022-07-31T12:55:58.282Z,3.28
2022-07-31T12:58:03.428Z,3.22
2022-07-31T13:00:11.117Z,1.67
2022-07-31T13:02:20.133Z,2.78
2022-07-31T13:04:25.261Z,1.92
2022-07-31T13:06:32.556Z,2.00
2022-07-31T13:08:37.667Z,2.47
2022-07-31T13:10:42.682Z,5.07
2022-07-31T13:12:50.473Z,3.15
2022-07-31T13:14:55.491Z,1.77
2022-07-31T13:17:00.489Z,3.00
2022-07-31T13:19:08.091Z,2.17
2022-07-31T13:21:13.132Z,3.03
2022-07-31T13:23:18.317Z,4.60
2022-07-31T13:25:23.453Z,3.30
2022-07-31T13:27:28.499Z,2.63
2022-07-31T13:29:33.494Z,2.70
2022-07-31T13:31:39.283Z,3.60
2022-07-31T13:33:44.406Z,3.53
2022-07-31T13:35:52.114Z,3.85
2022-07-31T13:37:57.185Z,2.85
2022-07-31T13:40:02.234Z,1.80
2022-07-31T13:42:08.059Z,1.98
2022-07-31T13:44:13.973Z,7.00
2022-07-31T13:46:19.154Z,3.58
2022-07-31T13:48:24.205Z,1.85
2022-07-31T13:50:29.223Z,2.22
2022-07-31T13:52:36.817Z,3.58
2022-07-31T13:54:41.883Z,2.50
2022-07-31T13:56:46.880Z,3.10
2022-07-31T13:58:52.169Z,2.28
2022-07-31T14:01:02.594Z,3.63
2022-07-31T14:03:09.338Z,3.42
2022-07-31T14:05:14.618Z,5.07
2022-07-31T14:07:19.597Z,1.88
2022-07-31T14:09:27.627Z,2.42
2022-07-31T14:11:32.681Z,1.95
2022-07-31T14:13:42.325Z,3.47
2022-07-31T14:15:48.152Z,4.50
2022-07-31T14:17:53.194Z,4.32
2022-07-31T14:19:58.225Z,2.92
2022-07-31T14:22:03.739Z,2.20
2022-07-31T14:24:16.870Z,2.10
2022-07-31T14:26:25.094Z,2.78
2022-07-31T14:28:30.089Z,3.08
2022-07-31T14:30:36.642Z,3.78
2022-07-31T14:32:41.959Z,3.15
2022-07-31T14:34:46.942Z,2.55
2022-07-31T14:36:53.798Z,11.82
2022-07-31T14:38:58.853Z,6.88
2022-07-31T14:41:07.673Z,4.80
2022-07-31T14:43:15.378Z,5.13
2022-07-31T14:45:20.412Z,5.22
2022-07-31T14:47:26.745Z,3.67
2022-07-31T14:50:07.112Z,4.47
2022-07-31T14:51:56.867Z,3.45
2022-07-31T14:54:02.380Z,3.10
2022-07-31T14:56:08.441Z,4.18
2022-07-31T14:58:16.136Z,3.63
2022-07-31T15:00:21.419Z,4.50
2022-07-31T15:02:26.465Z,4.05
2022-07-31T15:04:31.849Z,3.28
2022-07-31T15:06:41.017Z,2.70
2022-07-31T15:09:00.842Z,4.07
2022-07-31T15:11:06.000Z,5.22
2022-07-31T15:13:11.411Z,2.85
2022-07-31T15:15:18.978Z,3.35
2022-07-31T15:17:23.991Z,3.45
2022-07-31T15:19:29.147Z,2.50
2022-07-31T15:21:34.494Z,3.75
2022-07-31T15:23:40.435Z,3.85
2022-07-31T15:25:46.281Z,3.47
2022-07-31T15:27:51.466Z,4.07
2022-07-31T15:30:04.799Z,4.95
2022-07-31T15:32:14.930Z,4.07
2022-07-31T15:34:19.907Z,2.70
2022-07-31T15:36:27.449Z,2.60
2022-07-31T15:38:32.777Z,5.18
2022-07-31T15:40:39.366Z,4.65
2022-07-31T15:42:47.318Z,2.65
2022-07-31T15:44:52.465Z,3.55
2022-07-31T15:46:57.750Z,3.88
2022-07-31T15:49:05.924Z,3.83
2022-07-31T15:51:11.839Z,3.03
2022-07-31T15:53:17.257Z,2.33
2022-07-31T15:55:22.362Z,5.47
2022-07-31T15:57:28.874Z,6.50
2022-07-31T15:59:34.099Z,3.72
2022-07-31T16:01:39.503Z,4.13
2022-07-31T16:03:50.478Z,5.47
2022-07-31T16:06:00.830Z,4.10
2022-07-31T16:08:30.190Z,2.50
2022-07-31T16:10:32.226Z,3.65
2022-07-31T16:12:38.233Z,4.18
2022-07-31T16:14:43.487Z,5.55
2022-07-31T16:16:49.076Z,3.78
2022-07-31T16:18:57.916Z,4.75
2022-07-31T16:21:05.577Z,2.95
2022-07-31T16:23:10.585Z,4.28
2022-07-31T16:25:16.226Z,5.65
2022-07-31T16:27:21.436Z,3.25
2022-07-31T16:29:58.795Z,3.70
2022-07-31T16:31:52.788Z,6.43
2022-07-31T16:33:57.986Z,2.47
2022-07-31T16:36:05.674Z,3.53
2022-07-31T16:38:10.833Z,3.67
2022-07-31T16:40:29.216Z,2.58
2022-07-31T16:42:36.570Z,3.45
2022-07-31T16:44:41.702Z,5.50
2022-07-31T16:46:49.185Z,3.83
2022-07-31T16:48:56.538Z,4.00
2022-07-31T16:51:01.599Z,2.75
2022-07-31T16:53:09.204Z,3.38
2022-07-31T16:55:18.901Z,2.85
2022-07-31T16:57:23.997Z,2.10
2022-07-31T16:59:30.335Z,3.25
2022-07-31T17:01:57.349Z,3.92
2022-07-31T17:04:04.208Z,3.83
2022-07-31T17:06:10.305Z,2.13
2022-07-31T17:08:18.115Z,4.03
2022-07-31T17:10:23.450Z,3.28
2022-07-31T17:12:28.506Z,3.50
2022-07-31T17:14:33.500Z,2.30
2022-07-31T17:16:39.312Z,3.65
2022-07-31T17:18:49.493Z,3.78
2022-07-31T17:20:59.846Z,3.17
2022-07-31T17:23:08.608Z,3.22
2022-07-31T17:25:16.311Z,4.20
2022-07-31T17:27:22.757Z,2.45
2022-07-31T17:29:27.868Z,2.53
2022-07-31T17:31:33.336Z,3.92
2022-07-31T17:33:59.309Z,2.25
2022-07-31T17:36:03.599Z,5.05
2022-07-31T17:38:10.584Z,3.45
2022-07-31T17:40:42.096Z,3.05
2022-07-31T17:42:43.928Z,5.55
2022-07-31T17:44:54.613Z,3.10
2022-07-31T17:47:00.494Z,5.32
2022-07-31T17:49:09.286Z,3.53
2022-07-31T17:51:14.365Z,3.28
2022-07-31T17:53:19.831Z,3.60
2022-07-31T17:55:28.018Z,6.07
2022-07-31T17:57:34.123Z,7.38
2022-07-31T17:59:39.974Z,5.95
2022-07-31T18:01:45.097Z,5.63
2022-07-31T18:03:57.102Z,3.83
2022-07-31T18:06:02.263Z,3.90
2022-07-31T18:08:08.525Z,4.07
2022-07-31T18:10:14.355Z,7.65
2022-07-31T18:12:24.346Z,3.83
2022-07-31T18:14:29.686Z,4.90
2022-07-31T18:16:34.841Z,5.30
2022-07-31T18:18:41.949Z,5.20
2022-07-31T18:20:47.700Z,4.13
2022-07-31T18:22:53.234Z,3.35
2022-07-31T18:24:58.318Z,6.60
2022-07-31T18:27:07.725Z,3.17
2022-07-31T18:29:17.024Z,4.30
2022-07-31T18:31:33.987Z,4.20
2022-07-31T18:33:42.651Z,4.13
2022-07-31T18:35:48.238Z,4.28
2022-07-31T18:37:53.289Z,7.25
2022-07-31T18:39:59.438Z,7.70
2022-07-31T18:42:04.667Z,2.67
2022-07-31T18:44:09.977Z,5.05
2022-07-31T18:46:18.429Z,5.40
2022-07-31T18:48:23.561Z,6.53
2022-07-31T18:51:00.585Z,3.67
2022-07-31T18:52:54.199Z,2.88
2022-07-31T18:55:08.420Z,4.93
2022-07-31T18:57:13.522Z,4.68
2022-07-31T18:59:18.573Z,5.97
2022-07-31T19:01:26.840Z,5.97
2022-07-31T19:03:32.932Z,3.65
2022-07-31T19:05:38.350Z,5.18
2022-07-31T19:07:43.563Z,4.63
2022-07-31T19:09:54.180Z,5.07
2022-07-31T19:12:07.536Z,4.15
2022-07-31T19:14:16.495Z,9.20
2022-07-31T19:16:21.657Z,4.65
2022-07-31T19:18:29.616Z,6.70
2022-07-31T19:20:50.885Z,4.32
2022-07-31T19:23:03.505Z,3.20
2022-07-31T19:25:10.810Z,4.95
2022-07-31T19:27:19.136Z,5.13
2022-07-31T19:29:25.091Z,3.95
2022-07-31T19:31:30.189Z,4.38
2022-07-31T19:33:47.820Z,4.15
2022-07-31T19:36:00.351Z,4.25
2022-07-31T19:38:06.767Z,5.45
2022-07-31T19:40:14.045Z,5.55
2022-07-31T19:42:19.344Z,8.05
2022-07-31T19:44:24.440Z,4.45
2022-07-31T19:46:29.517Z,6.43
2022-07-31T19:48:35.465Z,7.40
2022-07-31T19:50:43.163Z,6.22
2022-07-31T19:52:48.759Z,6.63
2022-07-31T19:54:53.852Z,5.10
2022-07-31T19:56:58.899Z,5.70
2022-07-31T19:59:04.050Z,7.85
2022-07-31T20:01:09.926Z,6.00
2022-07-31T20:03:16.177Z,7.25
2022-07-31T20:05:21.849Z,3.30
2022-07-31T20:07:32.907Z,5.97
2022-07-31T20:09:38.809Z,4.65
2022-07-31T20:11:43.942Z,7.00
2022-07-31T20:13:49.079Z,3.63
2022-07-31T20:15:54.601Z,6.88
2022-07-31T20:17:59.973Z,4.30
2022-07-31T20:20:15.708Z,5.95
2022-07-31T20:22:21.528Z,3.95
2022-07-31T20:24:30.761Z,3.75
2022-07-31T20:26:36.715Z,6.05
2022-07-31T20:28:44.617Z,5.03
2022-07-31T20:30:49.747Z,6.70
2022-07-31T20:32:54.805Z,6.55
2022-07-31T20:35:00.124Z,4.80
2022-07-31T20:37:05.255Z,6.97
2022-07-31T20:39:10.458Z,3.85
2022-07-31T20:41:18.246Z,4.05
2022-07-31T20:43:23.701Z,6.10
2022-07-31T20:45:29.191Z,4.20
2022-07-31T20:47:34.333Z,6.72
2022-07-31T20:49:39.610Z,4.57
2022-07-31T20:51:45.086Z,4.35
2022-07-31T20:53:51.124Z,7.00
2022-07-31T20:55:56.286Z,9.80
2022-07-31T20:58:03.965Z,8.02
2022-07-31T21:00:12.275Z,4.18
2022-07-31T21:02:17.333Z,6.85
2022-07-31T21:04:22.378Z,4.18
2022-07-31T21:06:28.107Z,6.90
2022-07-31T21:08:34.130Z,4.53
2022-07-31T21:10:39.415Z,5.13
2022-07-31T21:12:44.695Z,10.23
2022-07-31T21:14:52.684Z,7.78
2022-07-31T21:16:58.200Z,5.32
2022-07-31T21:19:03.293Z,6.05
2022-07-31T21:21:09.164Z,6.20
2022-07-31T21:23:14.433Z,4.63
2022-07-31T21:25:20.209Z,4.43
2022-07-31T21:27:25.904Z,7.78
2022-07-31T21:29:32.139Z,6.80
2022-07-31T21:31:49.127Z,3.85
2022-07-31T21:33:56.687Z,8.15
2022-07-31T21:36:02.793Z,7.43
2022-07-31T21:38:15.242Z,3.83
2022-07-31T21:40:22.500Z,5.70
2022-07-31T21:42:28.644Z,6.35
2022-07-31T21:44:34.649Z,6.53
2022-07-31T21:46:50.551Z,5.05
2022-07-31T21:48:57.458Z,6.03
2022-07-31T21:51:04.318Z,5.30
2022-07-31T21:53:09.370Z,5.95
2022-07-31T21:55:14.425Z,7.00
2022-07-31T21:57:19.480Z,5.63
2022-07-31T21:59:24.636Z,5.68
2022-07-31T22:01:30.082Z,5.30
2022-07-31T22:03:37.841Z,3.72
2022-07-31T22:05:56.433Z,4.88
2022-07-31T22:08:01.517Z,4.35
2022-07-31T22:10:10.671Z,5.78
2022-07-31T22:12:16.206Z,4.93
2022-07-31T22:14:21.505Z,7.25
2022-07-31T22:16:26.600Z,4.05
2022-07-31T22:18:34.222Z,4.95
2022-07-31T22:20:43.565Z,4.65
2022-07-31T22:22:49.842Z,7.75
2022-07-31T22:24:55.923Z,6.88
2022-07-31T22:27:16.713Z,6.22
2022-07-31T22:29:21.940Z,4.57
2022-07-31T22:31:27.939Z,5.97
2022-07-31T22:33:34.085Z,6.25
2022-07-31T22:35:42.856Z,6.82
2022-07-31T22:37:49.869Z,7.88
2022-07-31T22:39:55.624Z,5.18
2022-07-31T22:42:01.962Z,6.15
2022-07-31T22:44:13.707Z,12.57
2022-07-31T22:46:20.354Z,5.97
2022-07-31T22:48:28.513Z,4.30
2022-07-31T22:50:34.231Z,5.10
2022-07-31T22:52:42.922Z,7.07
2022-07-31T22:54:48.619Z,5.80
2022-07-31T22:56:54.166Z,6.85
2022-07-31T22:58:59.259Z,8.30
2022-07-31T23:01:04.696Z,5.95
2022-07-31T23:03:09.813Z,5.28
2022-07-31T23:05:15.962Z,7.30
2022-07-31T23:07:21.450Z,5.60
2022-07-31T23:09:29.532Z,7.07
2022-07-31T23:11:34.611Z,7.57
2022-07-31T23:13:39.769Z,9.27
2022-07-31T23:15:45.246Z,7.75
2022-07-31T23:17:50.391Z,5.82
2022-07-31T23:19:55.950Z,11.68
2022-07-31T23:22:01.984Z,6.53
2022-07-31T23:24:08.008Z,5.88
2022-07-31T23:26:15.698Z,7.25
2022-07-31T23:28:20.756Z,5.80
2022-07-31T23:30:27.566Z,5.93
2022-07-31T23:32:32.888Z,7.70
2022-07-31T23:34:38.504Z,5.10
2022-07-31T23:36:44.266Z,8.55
2022-07-31T23:38:49.624Z,5.20
2022-07-31T23:40:56.440Z,6.50
2022-07-31T23:43:01.509Z,9.80
2022-07-31T23:45:07.955Z,6.10
2022-07-31T23:47:17.137Z,6.35
2022-07-31T23:49:22.659Z,8.07
2022-07-31T23:51:27.906Z,7.72
2022-07-31T23:53:33.016Z,9.02
2022-07-31T23:55:39.216Z,7.30
2022-07-31T23:57:48.550Z,7.28
2022-07-31T23:59:56.713Z,8.45
